createdAt,value
2023-05-15T00:01:32.452Z,9.06
2023-05-15T00:04:00.006Z,8.88
2023-05-15T00:06:29.075Z,9.01
2023-05-15T00:08:56.598Z,9.05
2023-05-15T00:11:24.166Z,9.02
2023-05-15T00:13:52.271Z,9.01
2023-05-15T00:16:20.005Z,8.98
2023-05-15T00:18:47.604Z,8.98
2023-05-15T00:21:15.279Z,9.05
2023-05-15T00:23:44.152Z,9.02
2023-05-15T00:26:13.696Z,9.07
2023-05-15T00:28:41.197Z,9.03
2023-05-15T00:31:09.586Z,9.02
2023-05-15T00:33:37.198Z,8.88
2023-05-15T00:36:04.992Z,8.90
2023-05-15T00:38:33.551Z,9.11
2023-05-15T00:41:02.720Z,9.03
2023-05-15T00:43:30.574Z,8.90
2023-05-15T00:45:58.932Z,8.88
2023-05-15T00:48:26.635Z,9.09
2023-05-15T00:50:54.573Z,9.05
2023-05-15T00:53:22.094Z,8.98
2023-05-15T00:55:50.817Z,8.94
2023-05-15T00:58:22.462Z,9.04
2023-05-15T01:00:51.272Z,9.05
2023-05-15T01:03:18.883Z,9.02
2023-05-15T01:05:46.507Z,8.97
2023-05-15T01:08:17.707Z,8.92
2023-05-15T01:10:45.371Z,8.97
2023-05-15T01:13:14.939Z,8.96
2023-05-15T01:15:44.629Z,8.95
2023-05-15T01:18:12.248Z,8.96
2023-05-15T01:20:51.924Z,8.92
2023-05-15T01:23:25.081Z,8.92
2023-05-15T01:26:37.708Z,8.95
2023-05-15T01:29:10.245Z,8.94
2023-05-15T01:31:38.763Z,9.01
2023-05-15T01:34:09.727Z,9.01
2023-05-15T01:36:39.705Z,9.01
2023-05-15T01:39:08.373Z,9.06
2023-05-15T01:41:39.421Z,8.93
2023-05-15T01:44:09.587Z,9.02
2023-05-15T01:46:40.224Z,9.06
2023-05-15T01:49:09.579Z,9.06
2023-05-15T01:51:38.618Z,8.98
2023-05-15T01:54:07.607Z,8.95
2023-05-15T01:56:36.218Z,9.04
2023-05-15T01:59:05.605Z,8.98
2023-05-15T02:01:35.648Z,9.01
2023-05-15T02:04:04.211Z,8.95
2023-05-15T02:06:32.175Z,8.95
2023-05-15T02:09:02.171Z,8.82
2023-05-15T02:11:29.717Z,8.94
2023-05-15T02:13:58.239Z,8.91
2023-05-15T02:16:25.908Z,8.96
2023-05-15T02:18:55.312Z,8.96
2023-05-15T02:21:23.035Z,8.96
2023-05-15T02:23:50.598Z,8.98
2023-05-15T02:26:27.815Z,8.86
2023-05-15T02:29:01.766Z,9.02
2023-05-15T02:31:33.430Z,9.01
2023-05-15T02:34:10.316Z,8.85
2023-05-15T02:36:41.810Z,8.97
2023-05-15T02:39:10.548Z,8.99
2023-05-15T02:41:38.163Z,9.00
2023-05-15T02:44:06.586Z,8.97
2023-05-15T02:46:34.581Z,8.91
2023-05-15T02:49:03.543Z,8.94
2023-05-15T02:51:31.149Z,8.93
2023-05-15T02:54:01.290Z,8.91
2023-05-15T02:56:28.825Z,8.90
2023-05-15T02:58:56.896Z,8.94
2023-05-15T03:01:24.716Z,8.92
2023-05-15T03:03:52.798Z,8.81
2023-05-15T03:06:21.743Z,8.79
2023-05-15T03:08:49.258Z,8.73
2023-05-15T03:11:19.166Z,8.68
2023-05-15T03:13:46.732Z,8.69
2023-05-15T03:16:14.302Z,8.77
2023-05-15T03:18:42.378Z,8.77
2023-05-15T03:21:10.010Z,8.82
2023-05-15T03:23:38.885Z,8.83
2023-05-15T03:26:06.431Z,8.85
2023-05-15T03:28:33.975Z,8.87
2023-05-15T03:31:01.655Z,8.88
2023-05-15T03:33:29.220Z,8.96
2023-05-15T03:35:56.702Z,9.01
2023-05-15T03:38:24.310Z,8.93
2023-05-15T03:40:53.177Z,8.87
2023-05-15T03:43:20.718Z,8.88
2023-05-15T03:45:48.268Z,8.72
2023-05-15T03:48:15.811Z,8.94
2023-05-15T03:50:45.160Z,8.83
2023-05-15T03:53:12.833Z,8.72
2023-05-15T03:55:40.541Z,8.78
2023-05-15T03:58:09.472Z,8.90
2023-05-15T04:00:37.027Z,8.92
2023-05-15T04:03:04.589Z,8.94
2023-05-15T04:05:32.252Z,8.88
2023-05-15T04:07:59.764Z,8.92
2023-05-15T04:10:27.332Z,8.94
2023-05-15T04:12:54.880Z,9.00
2023-05-15T04:15:25.557Z,8.92
2023-05-15T04:17:54.313Z,8.91
2023-05-15T04:20:23.135Z,9.06
2023-05-15T04:22:51.352Z,8.86
2023-05-15T04:25:20.127Z,8.96
2023-05-15T04:27:49.147Z,9.09
2023-05-15T04:30:16.723Z,8.93
2023-05-15T04:32:46.293Z,8.98
2023-05-15T04:35:15.253Z,9.02
2023-05-15T04:37:45.450Z,8.95
2023-05-15T04:40:14.984Z,8.89
2023-05-15T04:42:42.925Z,8.94
2023-05-15T04:45:10.858Z,9.14
2023-05-15T04:47:38.697Z,9.04
2023-05-15T04:50:09.112Z,9.25
2023-05-15T04:52:36.699Z,9.37
2023-05-15T04:55:04.690Z,9.34
2023-05-15T04:57:32.191Z,9.26
2023-05-15T04:59:59.757Z,9.22
2023-05-15T05:02:27.257Z,9.34
2023-05-15T05:04:54.898Z,9.43
2023-05-15T05:07:23.764Z,9.68
2023-05-15T05:09:51.333Z,9.93
2023-05-15T05:12:18.875Z,10.07
2023-05-15T05:14:46.625Z,9.92
2023-05-15T05:17:14.287Z,9.77
2023-05-15T05:19:42.264Z,9.75
2023-05-15T05:22:09.838Z,9.69
2023-05-15T05:24:38.673Z,9.68
2023-05-15T05:27:06.747Z,9.82
2023-05-15T05:29:34.942Z,9.77
2023-05-15T05:32:02.705Z,9.66
2023-05-15T05:34:30.378Z,9.88
2023-05-15T05:36:57.896Z,9.91
2023-05-15T05:39:25.436Z,10.11
2023-05-15T05:41:54.332Z,10.03
2023-05-15T05:44:21.875Z,10.26
2023-05-15T05:46:50.355Z,10.28
2023-05-15T05:49:18.016Z,10.32
2023-05-15T05:51:46.454Z,10.13
2023-05-15T05:54:14.913Z,10.34
2023-05-15T05:56:42.794Z,10.17
2023-05-15T05:59:11.745Z,10.17
2023-05-15T06:01:39.355Z,10.27
2023-05-15T06:04:07.061Z,10.28
2023-05-15T06:06:35.313Z,10.33
2023-05-15T06:09:04.302Z,10.39
2023-05-15T06:11:31.866Z,10.84
2023-05-15T06:13:59.607Z,10.73
2023-05-15T06:16:28.599Z,10.79
2023-05-15T06:18:56.262Z,10.88
2023-05-15T06:21:23.782Z,11.03
2023-05-15T06:23:51.973Z,11.06
2023-05-15T06:26:19.877Z,11.33
2023-05-15T06:28:47.428Z,11.70
2023-05-15T06:31:14.972Z,12.09
2023-05-15T06:33:43.892Z,12.11
2023-05-15T06:36:11.463Z,12.02
2023-05-15T06:38:39.613Z,12.07
2023-05-15T06:41:07.129Z,12.29
2023-05-15T06:43:36.323Z,12.04
2023-05-15T06:46:04.200Z,11.75
2023-05-15T06:48:33.075Z,12.10
2023-05-15T06:51:01.916Z,11.89
2023-05-15T06:53:30.501Z,12.09
2023-05-15T06:55:58.663Z,12.12
2023-05-15T06:58:26.321Z,12.19
2023-05-15T07:00:56.106Z,12.27
2023-05-15T07:03:23.998Z,12.56
2023-05-15T07:05:52.147Z,12.71
2023-05-15T07:08:20.990Z,12.90
2023-05-15T07:10:50.256Z,13.11
2023-05-15T07:13:18.602Z,13.75
2023-05-15T07:15:46.322Z,13.42
2023-05-15T07:18:13.926Z,13.02
2023-05-15T07:20:41.468Z,13.23
2023-05-15T07:23:08.978Z,13.36
2023-05-15T07:25:38.233Z,13.68
2023-05-15T07:28:06.039Z,13.43
2023-05-15T07:30:33.568Z,13.42
2023-05-15T07:33:01.375Z,13.46
2023-05-15T07:35:28.894Z,13.41
2023-05-15T07:37:56.403Z,13.19
2023-05-15T07:40:23.984Z,12.93
2023-05-15T07:42:52.846Z,12.55
2023-05-15T07:45:20.487Z,12.52
2023-05-15T07:47:49.046Z,12.69
2023-05-15T07:50:16.807Z,12.76
2023-05-15T07:52:44.698Z,12.91
2023-05-15T07:55:12.516Z,13.07
2023-05-15T07:57:40.779Z,13.27
2023-05-15T08:00:12.685Z,13.60
2023-05-15T08:02:40.659Z,13.54
2023-05-15T08:05:08.966Z,13.64
2023-05-15T08:07:36.646Z,13.34
2023-05-15T08:10:06.115Z,13.60
2023-05-15T08:12:34.158Z,13.78
2023-05-15T08:15:01.759Z,13.37
2023-05-15T08:17:30.701Z,13.82
2023-05-15T08:19:58.253Z,13.93
2023-05-15T08:22:25.770Z,13.59
2023-05-15T08:24:53.351Z,14.25
2023-05-15T08:27:20.884Z,14.59
2023-05-15T08:29:48.415Z,15.12
2023-05-15T08:32:15.948Z,15.80
2023-05-15T08:34:44.881Z,15.65
2023-05-15T08:37:12.605Z,15.61
2023-05-15T08:39:40.157Z,15.56
2023-05-15T08:42:10.367Z,15.69
2023-05-15T08:44:39.209Z,15.99
2023-05-15T08:47:07.452Z,16.50
2023-05-15T08:49:42.166Z,16.38
2023-05-15T08:52:11.327Z,16.89
2023-05-15T08:54:40.191Z,17.62
2023-05-15T08:57:08.209Z,17.34
2023-05-15T08:59:35.716Z,17.42
2023-05-15T09:02:03.384Z,17.71
2023-05-15T09:04:30.938Z,17.17
2023-05-15T09:07:00.204Z,16.74
2023-05-15T09:09:29.278Z,17.01
2023-05-15T09:11:56.905Z,17.16
2023-05-15T09:14:24.427Z,17.13
2023-05-15T09:16:53.425Z,16.88
2023-05-15T09:19:22.467Z,16.87
2023-05-15T09:21:50.520Z,16.54
2023-05-15T09:24:20.071Z,16.30
2023-05-15T09:27:02.726Z,15.94
2023-05-15T09:29:31.082Z,15.53
2023-05-15T09:32:04.045Z,15.29
2023-05-15T09:34:33.094Z,15.07
2023-05-15T09:37:02.558Z,15.10
2023-05-15T09:39:30.517Z,15.42
2023-05-15T09:42:08.660Z,15.17
2023-05-15T09:44:36.405Z,14.80
2023-05-15T09:47:06.613Z,14.52
2023-05-15T09:49:34.200Z,14.37
2023-05-15T09:52:02.432Z,14.78
2023-05-15T09:54:31.226Z,14.99
2023-05-15T09:57:10.098Z,15.39
2023-05-15T09:59:39.666Z,15.48
2023-05-15T10:02:07.191Z,15.34
2023-05-15T10:04:37.515Z,15.39
2023-05-15T10:07:09.017Z,15.77
2023-05-15T10:09:36.536Z,16.05
2023-05-15T10:12:04.909Z,15.64
2023-05-15T10:14:33.935Z,15.55
2023-05-15T10:17:01.573Z,15.27
2023-05-15T10:19:29.712Z,15.38
2023-05-15T10:21:58.373Z,15.30
2023-05-15T10:24:26.722Z,15.26
2023-05-15T10:26:56.462Z,15.17
2023-05-15T10:29:26.697Z,15.41
2023-05-15T10:31:55.985Z,15.59
2023-05-15T10:34:23.997Z,15.83
2023-05-15T10:36:51.892Z,16.34
2023-05-15T10:39:20.087Z,17.39
2023-05-15T10:41:47.893Z,17.83
2023-05-15T10:44:15.833Z,17.92
2023-05-15T10:46:43.455Z,18.28
2023-05-15T10:49:12.319Z,18.20
2023-05-15T10:51:40.672Z,17.99
2023-05-15T10:54:09.941Z,17.65
2023-05-15T10:56:39.913Z,17.35
2023-05-15T10:59:09.577Z,17.23
2023-05-15T11:01:38.303Z,16.91
2023-05-15T11:04:08.071Z,16.62
2023-05-15T11:06:37.519Z,16.58
2023-05-15T11:09:36.832Z,16.92
2023-05-15T11:12:05.391Z,17.11
2023-05-15T11:14:33.979Z,17.30
2023-05-15T11:17:04.078Z,17.60
2023-05-15T11:19:40.101Z,17.41
2023-05-15T11:22:19.771Z,17.70
2023-05-15T11:24:55.708Z,18.15
2023-05-15T11:27:24.648Z,18.46
2023-05-15T11:30:09.656Z,18.57
2023-05-15T11:32:50.188Z,18.40
2023-05-15T11:35:22.912Z,18.88
2023-05-15T11:37:54.058Z,19.50
2023-05-15T11:40:23.871Z,19.00
2023-05-15T11:43:08.700Z,17.32
2023-05-15T11:45:37.954Z,15.75
2023-05-15T11:48:07.534Z,14.30
2023-05-15T11:50:36.266Z,13.57
2023-05-15T11:53:06.458Z,12.44
2023-05-15T11:55:35.111Z,11.98
2023-05-15T11:58:02.952Z,12.10
2023-05-15T12:00:30.743Z,12.01
2023-05-15T12:02:58.576Z,12.15
2023-05-15T12:05:26.158Z,12.58
2023-05-15T12:07:53.783Z,12.90
2023-05-15T12:10:22.874Z,13.41
2023-05-15T12:12:51.042Z,13.78
2023-05-15T12:15:18.783Z,14.15
2023-05-15T12:17:46.710Z,14.53
2023-05-15T12:20:18.510Z,14.96
2023-05-15T12:22:46.184Z,15.57
2023-05-15T12:25:15.537Z,16.56
2023-05-15T12:27:44.905Z,16.25
2023-05-15T12:30:14.613Z,16.82
2023-05-15T12:32:42.324Z,18.19
2023-05-15T12:35:11.739Z,19.90
2023-05-15T12:37:39.995Z,21.36
2023-05-15T12:40:10.373Z,21.81
2023-05-15T12:42:42.591Z,22.56
2023-05-15T12:45:15.721Z,22.43
2023-05-15T12:47:44.075Z,23.97
2023-05-15T12:50:16.151Z,25.35
2023-05-15T12:52:53.191Z,25.21
2023-05-15T12:55:25.653Z,24.84
2023-05-15T12:57:53.334Z,25.92
2023-05-15T13:00:23.765Z,27.30
2023-05-15T13:02:53.323Z,25.69
2023-05-15T13:05:21.333Z,25.42
2023-05-15T13:07:49.033Z,25.66
2023-05-15T13:10:16.622Z,23.60
2023-05-15T13:12:45.880Z,25.48
2023-05-15T13:15:26.390Z,24.29
2023-05-15T13:17:56.765Z,23.22
2023-05-15T13:20:24.972Z,24.83
2023-05-15T13:22:52.652Z,26.98
2023-05-15T13:25:20.982Z,27.41
2023-05-15T13:27:48.991Z,26.14
2023-05-15T13:30:16.994Z,24.48
2023-05-15T13:32:46.170Z,25.52
2023-05-15T13:35:13.819Z,27.86
2023-05-15T13:37:41.358Z,29.17
2023-05-15T13:40:10.726Z,30.78
2023-05-15T13:42:38.241Z,32.65
2023-05-15T13:45:07.174Z,31.82
2023-05-15T13:47:34.927Z,30.64
2023-05-15T13:50:04.356Z,29.34
2023-05-15T13:52:31.940Z,27.39
2023-05-15T13:54:59.492Z,23.80
2023-05-15T13:57:27.047Z,22.95
2023-05-15T13:59:54.751Z,22.51
2023-05-15T14:02:26.125Z,22.14
2023-05-15T14:04:54.071Z,25.12
2023-05-15T14:07:24.374Z,27.29
2023-05-15T14:09:52.332Z,29.44
2023-05-15T14:12:19.877Z,30.92
2023-05-15T14:14:48.784Z,32.74
2023-05-15T14:17:16.654Z,30.67
2023-05-15T14:19:44.277Z,27.51
2023-05-15T14:22:12.175Z,25.22
2023-05-15T14:24:41.035Z,23.82
2023-05-15T14:27:09.325Z,22.09
2023-05-15T14:29:37.046Z,21.13
2023-05-15T14:32:04.794Z,20.82
2023-05-15T14:34:32.695Z,20.40
2023-05-15T14:37:00.239Z,20.01
2023-05-15T14:39:27.945Z,19.41
2023-05-15T14:41:56.815Z,19.47
2023-05-15T14:44:24.366Z,19.40
2023-05-15T14:47:06.084Z,18.63
2023-05-15T14:49:33.678Z,18.48
2023-05-15T14:52:01.267Z,18.34
2023-05-15T14:54:28.763Z,18.45
2023-05-15T14:56:58.191Z,18.99
2023-05-15T14:59:25.741Z,18.65
2023-05-15T15:01:53.418Z,18.57
2023-05-15T15:04:21.042Z,17.78
2023-05-15T15:06:48.827Z,17.68
2023-05-15T15:09:17.345Z,17.76
2023-05-15T15:11:45.836Z,17.72
2023-05-15T15:14:14.734Z,17.55
2023-05-15T15:16:44.065Z,17.22
2023-05-15T15:19:11.731Z,17.27
2023-05-15T15:21:39.295Z,17.38
2023-05-15T15:24:07.381Z,17.42
2023-05-15T15:26:34.938Z,17.48
2023-05-15T15:29:02.457Z,17.55
2023-05-15T15:31:31.963Z,17.67
2023-05-15T15:33:59.774Z,17.62
2023-05-15T15:36:27.369Z,18.04
2023-05-15T15:38:54.870Z,18.62
2023-05-15T15:41:23.384Z,18.97
2023-05-15T15:43:51.115Z,19.41
2023-05-15T15:46:18.762Z,19.29
2023-05-15T15:48:47.660Z,19.59
2023-05-15T15:51:15.234Z,19.43
2023-05-15T15:53:42.773Z,18.56
2023-05-15T15:56:10.300Z,18.28
2023-05-15T15:58:37.809Z,17.98
2023-05-15T16:01:05.822Z,18.08
2023-05-15T16:03:55.432Z,17.11
2023-05-15T16:06:23.679Z,16.16
2023-05-15T16:08:51.838Z,15.48
2023-05-15T16:11:19.331Z,15.11
2023-05-15T16:13:47.434Z,14.69
2023-05-15T16:16:15.336Z,14.65
2023-05-15T16:18:42.955Z,14.51
2023-05-15T16:21:12.055Z,14.45
2023-05-15T16:23:41.236Z,14.31
2023-05-15T16:26:09.161Z,14.44
2023-05-15T16:28:36.714Z,14.23
2023-05-15T16:31:04.594Z,14.29
2023-05-15T16:33:32.343Z,14.22
2023-05-15T16:36:00.074Z,14.16
2023-05-15T16:38:29.003Z,14.07
2023-05-15T16:40:56.674Z,14.09
2023-05-15T16:43:24.155Z,14.08
2023-05-15T16:45:51.712Z,13.99
2023-05-15T16:48:19.227Z,14.00
2023-05-15T16:50:46.793Z,14.17
2023-05-15T16:53:14.904Z,14.09
2023-05-15T16:55:44.078Z,14.08
2023-05-15T16:58:11.603Z,14.26
2023-05-15T17:00:39.178Z,14.42
2023-05-15T17:03:07.215Z,14.44
2023-05-15T17:05:35.010Z,14.84
2023-05-15T17:08:02.542Z,15.11
2023-05-15T17:10:30.269Z,14.97
2023-05-15T17:12:59.169Z,14.88
2023-05-15T17:15:26.992Z,14.96
2023-05-15T17:17:54.820Z,14.74
2023-05-15T17:20:22.498Z,14.96
2023-05-15T17:22:50.011Z,14.85
2023-05-15T17:25:17.594Z,14.71
2023-05-15T17:27:45.761Z,14.80
2023-05-15T17:30:15.630Z,14.64
2023-05-15T17:32:43.258Z,14.71
2023-05-15T17:35:11.474Z,14.68
2023-05-15T17:37:38.970Z,14.41
2023-05-15T17:40:08.071Z,14.23
2023-05-15T17:42:35.993Z,13.94
2023-05-15T17:45:03.626Z,13.93
2023-05-15T17:47:32.559Z,13.91
2023-05-15T17:50:00.193Z,13.84
2023-05-15T17:52:27.772Z,13.82
2023-05-15T17:54:55.341Z,13.81
2023-05-15T17:57:22.853Z,13.68
2023-05-15T17:59:50.413Z,13.69
2023-05-15T18:02:17.916Z,13.58
2023-05-15T18:04:46.824Z,13.47
2023-05-15T18:07:14.302Z,13.43
2023-05-15T18:09:42.631Z,13.38
2023-05-15T18:12:10.511Z,13.17
2023-05-15T18:14:39.852Z,12.98
2023-05-15T18:17:07.968Z,13.06
2023-05-15T18:19:35.513Z,13.00
2023-05-15T18:22:04.961Z,13.01
2023-05-15T18:24:32.452Z,13.08
2023-05-15T18:26:59.997Z,12.98
2023-05-15T18:29:27.644Z,12.99
2023-05-15T18:31:55.372Z,12.84
2023-05-15T18:34:23.078Z,12.78
2023-05-15T18:36:51.994Z,12.69
2023-05-15T18:39:20.914Z,12.53
2023-05-15T18:41:48.414Z,12.42
2023-05-15T18:44:15.937Z,12.33
2023-05-15T18:46:43.520Z,12.19
2023-05-15T18:49:11.145Z,12.13
2023-05-15T18:51:38.670Z,12.17
2023-05-15T18:54:06.314Z,12.04
2023-05-15T18:56:35.139Z,11.72
2023-05-15T18:59:02.698Z,11.80
2023-05-15T19:01:30.451Z,11.74
2023-05-15T19:03:58.022Z,11.72
2023-05-15T19:06:25.563Z,11.68
2023-05-15T19:08:53.184Z,11.47
2023-05-15T19:11:21.285Z,11.60
2023-05-15T19:13:50.161Z,11.58
2023-05-15T19:16:17.708Z,11.51
2023-05-15T19:18:45.415Z,11.50
2023-05-15T19:21:12.981Z,11.51
2023-05-15T19:23:40.488Z,11.56
2023-05-15T19:26:10.376Z,11.64
2023-05-15T19:28:37.890Z,11.44
2023-05-15T19:31:11.772Z,11.56
2023-05-15T19:33:44.842Z,11.52
2023-05-15T19:36:12.741Z,11.36
2023-05-15T19:38:40.692Z,11.24
2023-05-15T19:41:08.166Z,11.15
2023-05-15T19:43:36.150Z,11.16
2023-05-15T19:46:04.117Z,11.15
2023-05-15T19:48:33.181Z,11.11
2023-05-15T19:51:00.769Z,11.09
2023-05-15T19:53:28.418Z,10.97
2023-05-15T19:55:56.184Z,10.85
2023-05-15T19:58:23.852Z,10.77
2023-05-15T20:00:52.677Z,10.62
2023-05-15T20:03:21.172Z,10.60
2023-05-15T20:05:50.337Z,10.57
2023-05-15T20:08:17.853Z,10.55
2023-05-15T20:10:45.449Z,10.54
2023-05-15T20:13:13.122Z,10.50
2023-05-15T20:15:40.649Z,10.45
2023-05-15T20:18:08.441Z,10.50
2023-05-15T20:20:36.299Z,10.44
2023-05-15T20:23:05.253Z,10.42
2023-05-15T20:25:32.786Z,10.33
2023-05-15T20:28:01.166Z,10.29
2023-05-15T20:30:29.231Z,10.23
2023-05-15T20:32:57.228Z,10.18
2023-05-15T20:35:25.483Z,10.12
2023-05-15T20:37:53.213Z,10.11
2023-05-15T20:40:22.883Z,10.07
2023-05-15T20:42:50.459Z,10.01
2023-05-15T20:45:18.079Z,9.91
2023-05-15T20:47:46.137Z,9.92
2023-05-15T20:50:13.798Z,9.90
2023-05-15T20:52:41.333Z,9.93
2023-05-15T20:55:15.997Z,9.93
2023-05-15T20:57:46.067Z,9.85
2023-05-15T21:00:15.355Z,9.79
2023-05-15T21:02:43.501Z,9.59
2023-05-15T21:05:11.046Z,9.61
2023-05-15T21:07:38.946Z,9.73
2023-05-15T21:10:07.673Z,9.67
2023-05-15T21:12:35.328Z,9.48
2023-05-15T21:15:05.103Z,9.56
2023-05-15T21:17:32.941Z,9.50
2023-05-15T21:20:01.895Z,9.44
2023-05-15T21:22:30.462Z,9.40
2023-05-15T21:24:58.080Z,9.35
2023-05-15T21:27:25.634Z,9.29
2023-05-15T21:29:53.153Z,9.22
2023-05-15T21:32:23.099Z,9.14
2023-05-15T21:34:50.695Z,9.11
2023-05-15T21:37:18.348Z,9.05
2023-05-15T21:39:45.891Z,9.02
2023-05-15T21:42:13.456Z,8.98
2023-05-15T21:44:41.596Z,8.95
2023-05-15T21:47:09.107Z,8.83
2023-05-15T21:49:37.921Z,8.78
2023-05-15T21:52:05.748Z,8.69
2023-05-15T21:54:33.251Z,8.73
2023-05-15T21:57:01.038Z,8.70
2023-05-15T21:59:28.854Z,8.50
2023-05-15T22:01:56.446Z,8.63
2023-05-15T22:04:24.043Z,8.66
2023-05-15T22:06:53.555Z,8.63
2023-05-15T22:09:21.096Z,8.60
2023-05-15T22:11:48.607Z,8.57
2023-05-15T22:14:16.125Z,8.53
2023-05-15T22:16:43.921Z,8.56
2023-05-15T22:19:28.536Z,8.51
2023-05-15T22:22:01.263Z,8.34
2023-05-15T22:24:29.233Z,8.45
2023-05-15T22:26:56.769Z,8.38
2023-05-15T22:29:24.288Z,8.36
2023-05-15T22:31:51.889Z,8.32
2023-05-15T22:34:19.485Z,8.34
2023-05-15T22:36:47.034Z,8.34
2023-05-15T22:39:15.976Z,8.36
2023-05-15T22:41:43.515Z,8.17
2023-05-15T22:44:11.011Z,8.34
2023-05-15T22:46:38.660Z,8.36
2023-05-15T22:49:09.143Z,8.50
2023-05-15T22:51:37.007Z,8.53
2023-05-15T22:54:04.882Z,8.40
2023-05-15T22:56:33.727Z,8.65
2023-05-15T22:59:01.343Z,8.66
2023-05-15T23:01:29.914Z,8.74
2023-05-15T23:03:57.543Z,8.75
2023-05-15T23:06:25.126Z,8.72
2023-05-15T23:08:52.864Z,8.68
2023-05-15T23:11:21.337Z,8.66
2023-05-15T23:13:50.773Z,8.62
2023-05-15T23:16:18.359Z,8.56
2023-05-15T23:18:46.077Z,8.56
2023-05-15T23:21:13.624Z,8.53
2023-05-15T23:23:41.129Z,8.38
2023-05-15T23:26:08.641Z,8.33
2023-05-15T23:28:36.144Z,8.26
2023-05-15T23:31:05.088Z,8.25
2023-05-15T23:33:32.636Z,8.20
2023-05-15T23:36:00.328Z,8.17
2023-05-15T23:38:28.203Z,8.15
2023-05-15T23:40:55.958Z,8.06
2023-05-15T23:43:23.510Z,8.04
2023-05-15T23:45:51.060Z,7.98
2023-05-15T23:48:19.934Z,7.89
2023-05-15T23:50:47.515Z,7.88
2023-05-15T23:53:15.043Z,7.85
2023-05-15T23:55:42.624Z,7.62
2023-05-15T23:58:10.189Z,7.77
